sensor_id;sensor_type;location;lat;lon;timestamp;temperature;humidity
666;DHT22;315;48.738;9.126;2023-05-19T00:01:44;12.80;99.90
666;DHT22;315;48.738;9.126;2023-05-19T00:04:13;12.80;99.90
666;DHT22;315;48.738;9.126;2023-05-19T00:06:40;12.70;99.90
666;DHT22;315;48.738;9.126;2023-05-19T00:09:07;12.70;99.90
666;DHT22;315;48.738;9.126;2023-05-19T00:11:34;12.60;99.90
666;DHT22;315;48.738;9.126;2023-05-19T00:14:01;12.60;99.90
666;DHT22;315;48.738;9.126;2023-05-19T00:16:28;12.60;99.90
666;DHT22;315;48.738;9.126;2023-05-19T00:18:54;12.60;99.90
666;DHT22;315;48.738;9.126;2023-05-19T00:21:20;12.50;99.90
666;DHT22;315;48.738;9.126;2023-05-19T00:23:45;12.60;99.90
666;DHT22;315;48.738;9.126;2023-05-19T00:26:11;12.60;99.90
666;DHT22;315;48.738;9.126;2023-05-19T00:28:36;12.50;99.90
666;DHT22;315;48.738;9.126;2023-05-19T00:31:03;12.30;99.90
666;DHT22;315;48.738;9.126;2023-05-19T00:33:29;12.40;99.90
666;DHT22;315;48.738;9.126;2023-05-19T00:35:54;12.30;99.90
666;DHT22;315;48.738;9.126;2023-05-19T00:38:23;12.10;99.90
666;DHT22;315;48.738;9.126;2023-05-19T00:40:49;12.20;99.90
666;DHT22;315;48.738;9.126;2023-05-19T00:43:14;12.20;99.90
666;DHT22;315;48.738;9.126;2023-05-19T00:45:40;12.10;99.90
666;DHT22;315;48.738;9.126;2023-05-19T00:48:05;12.00;99.90
666;DHT22;315;48.738;9.126;2023-05-19T00:50:31;12.00;99.90
666;DHT22;315;48.738;9.126;2023-05-19T00:52:57;11.90;99.90
666;DHT22;315;48.738;9.126;2023-05-19T00:55:26;11.90;99.90
666;DHT22;315;48.738;9.126;2023-05-19T00:57:53;11.80;99.90
666;DHT22;315;48.738;9.126;2023-05-19T01:00:19;11.70;99.90
666;DHT22;315;48.738;9.126;2023-05-19T01:02:44;11.60;99.90
666;DHT22;315;48.738;9.126;2023-05-19T01:05:10;11.60;99.90
666;DHT22;315;48.738;9.126;2023-05-19T01:07:37;11.60;99.90
666;DHT22;315;48.738;9.126;2023-05-19T01:10:02;11.50;99.90
666;DHT22;315;48.738;9.126;2023-05-19T01:12:29;11.60;99.90
666;DHT22;315;48.738;9.126;2023-05-19T01:14:56;11.70;99.90
666;DHT22;315;48.738;9.126;2023-05-19T01:17:30;11.80;99.90
666;DHT22;315;48.738;9.126;2023-05-19T01:23:05;11.80;99.90
666;DHT22;315;48.738;9.126;2023-05-19T01:31:23;11.80;99.90
666;DHT22;315;48.738;9.126;2023-05-19T01:33:51;11.80;99.90
666;DHT22;315;48.738;9.126;2023-05-19T01:36:19;11.90;99.90
666;DHT22;315;48.738;9.126;2023-05-19T01:38:50;11.80;99.90
666;DHT22;315;48.738;9.126;2023-05-19T01:41:18;11.70;99.90
666;DHT22;315;48.738;9.126;2023-05-19T01:43:44;11.80;99.90
666;DHT22;315;48.738;9.126;2023-05-19T01:46:10;11.70;99.90
666;DHT22;315;48.738;9.126;2023-05-19T01:48:36;11.70;99.90
666;DHT22;315;48.738;9.126;2023-05-19T01:51:01;11.80;99.90
666;DHT22;315;48.738;9.126;2023-05-19T01:53:27;11.70;99.90
666;DHT22;315;48.738;9.126;2023-05-19T01:55:54;11.70;99.90
666;DHT22;315;48.738;9.126;2023-05-19T01:58:45;11.70;99.90
666;DHT22;315;48.738;9.126;2023-05-19T02:01:36;11.70;99.90
666;DHT22;315;48.738;9.126;2023-05-19T02:12:17;11.70;99.90
666;DHT22;315;48.738;9.126;2023-05-19T02:17:32;11.70;99.90
666;DHT22;315;48.738;9.126;2023-05-19T02:20:01;11.70;99.90
666;DHT22;315;48.738;9.126;2023-05-19T02:22:26;11.60;99.90
666;DHT22;315;48.738;9.126;2023-05-19T02:24:52;11.60;99.90
666;DHT22;315;48.738;9.126;2023-05-19T02:27:17;11.60;99.90
666;DHT22;315;48.738;9.126;2023-05-19T02:29:43;11.70;99.90
666;DHT22;315;48.738;9.126;2023-05-19T02:32:10;11.70;99.90
666;DHT22;315;48.738;9.126;2023-05-19T02:34:35;11.70;99.90
666;DHT22;315;48.738;9.126;2023-05-19T02:37:01;11.70;99.90
666;DHT22;315;48.738;9.126;2023-05-19T02:39:26;11.70;99.90
666;DHT22;315;48.738;9.126;2023-05-19T02:41:53;11.60;99.90
666;DHT22;315;48.738;9.126;2023-05-19T02:44:19;11.60;99.90
666;DHT22;315;48.738;9.126;2023-05-19T02:46:44;11.60;99.90
666;DHT22;315;48.738;9.126;2023-05-19T02:49:10;11.60;99.90
666;DHT22;315;48.738;9.126;2023-05-19T02:51:35;11.60;99.90
666;DHT22;315;48.738;9.126;2023-05-19T02:54:01;11.50;99.90
666;DHT22;315;48.738;9.126;2023-05-19T02:56:26;11.60;99.90
666;DHT22;315;48.738;9.126;2023-05-19T02:58:52;11.60;99.90
666;DHT22;315;48.738;9.126;2023-05-19T03:01:18;11.50;99.90
666;DHT22;315;48.738;9.126;2023-05-19T03:03:45;11.60;99.90
666;DHT22;315;48.738;9.126;2023-05-19T03:06:12;11.60;99.90
666;DHT22;315;48.738;9.126;2023-05-19T03:08:38;11.60;99.90
666;DHT22;315;48.738;9.126;2023-05-19T03:11:04;11.60;99.90
666;DHT22;315;48.738;9.126;2023-05-19T03:13:30;11.60;99.90
666;DHT22;315;48.738;9.126;2023-05-19T03:15:56;11.70;99.90
666;DHT22;315;48.738;9.126;2023-05-19T03:18:24;11.70;99.90
666;DHT22;315;48.738;9.126;2023-05-19T03:20:50;11.80;99.90
666;DHT22;315;48.738;9.126;2023-05-19T03:23:15;11.70;99.90
666;DHT22;315;48.738;9.126;2023-05-19T03:25:41;11.60;99.90
666;DHT22;315;48.738;9.126;2023-05-19T03:28:06;11.70;99.90
666;DHT22;315;48.738;9.126;2023-05-19T03:30:32;11.70;99.90
666;DHT22;315;48.738;9.126;2023-05-19T03:32:57;11.70;99.90
666;DHT22;315;48.738;9.126;2023-05-19T03:35:26;11.60;99.90
666;DHT22;315;48.738;9.126;2023-05-19T03:37:51;11.50;99.90
666;DHT22;315;48.738;9.126;2023-05-19T03:40:17;11.50;99.90
666;DHT22;315;48.738;9.126;2023-05-19T03:42:43;11.50;99.90
666;DHT22;315;48.738;9.126;2023-05-19T03:45:08;11.50;99.90
666;DHT22;315;48.738;9.126;2023-05-19T03:47:34;11.40;99.90
666;DHT22;315;48.738;9.126;2023-05-19T03:49:59;11.40;99.90
666;DHT22;315;48.738;9.126;2023-05-19T03:52:25;11.40;99.90
666;DHT22;315;48.738;9.126;2023-05-19T03:54:51;11.40;99.90
666;DHT22;315;48.738;9.126;2023-05-19T03:57:17;11.40;99.90
666;DHT22;315;48.738;9.126;2023-05-19T03:59:42;11.40;99.90
666;DHT22;315;48.738;9.126;2023-05-19T04:02:08;11.20;99.90
666;DHT22;315;48.738;9.126;2023-05-19T04:04:33;11.10;99.90
666;DHT22;315;48.738;9.126;2023-05-19T04:06:59;11.20;99.90
666;DHT22;315;48.738;9.126;2023-05-19T04:09:25;11.10;99.90
666;DHT22;315;48.738;9.126;2023-05-19T04:11:51;11.10;99.90
666;DHT22;315;48.738;9.126;2023-05-19T04:14:16;11.20;99.90
666;DHT22;315;48.738;9.126;2023-05-19T04:16:42;11.10;99.90
666;DHT22;315;48.738;9.126;2023-05-19T04:19:07;11.10;99.90
666;DHT22;315;48.738;9.126;2023-05-19T04:21:33;11.10;99.90
666;DHT22;315;48.738;9.126;2023-05-19T04:23:59;11.10;99.90
666;DHT22;315;48.738;9.126;2023-05-19T04:26:25;11.10;99.90
666;DHT22;315;48.738;9.126;2023-05-19T04:28:51;11.10;99.90
666;DHT22;315;48.738;9.126;2023-05-19T04:31:18;11.10;99.90
666;DHT22;315;48.738;9.126;2023-05-19T04:33:45;11.20;99.90
666;DHT22;315;48.738;9.126;2023-05-19T04:36:12;11.40;99.90
666;DHT22;315;48.738;9.126;2023-05-19T04:38:38;11.50;99.90
666;DHT22;315;48.738;9.126;2023-05-19T04:41:05;11.50;99.90
666;DHT22;315;48.738;9.126;2023-05-19T04:43:30;11.50;99.90
666;DHT22;315;48.738;9.126;2023-05-19T04:45:56;11.50;99.90
666;DHT22;315;48.738;9.126;2023-05-19T04:48:22;11.50;99.90
666;DHT22;315;48.738;9.126;2023-05-19T04:50:48;11.60;99.90
666;DHT22;315;48.738;9.126;2023-05-19T04:53:16;11.60;99.90
666;DHT22;315;48.738;9.126;2023-05-19T04:55:42;11.70;99.90
666;DHT22;315;48.738;9.126;2023-05-19T04:58:08;11.90;99.90
666;DHT22;315;48.738;9.126;2023-05-19T05:00:34;12.00;99.90
666;DHT22;315;48.738;9.126;2023-05-19T05:03:00;12.00;99.90
666;DHT22;315;48.738;9.126;2023-05-19T05:05:29;12.00;99.90
666;DHT22;315;48.738;9.126;2023-05-19T05:07:55;12.00;99.90
666;DHT22;315;48.738;9.126;2023-05-19T05:10:20;12.00;99.90
666;DHT22;315;48.738;9.126;2023-05-19T05:12:46;12.20;99.90
666;DHT22;315;48.738;9.126;2023-05-19T05:15:12;12.20;99.90
666;DHT22;315;48.738;9.126;2023-05-19T05:17:38;12.30;99.90
666;DHT22;315;48.738;9.126;2023-05-19T05:20:04;12.40;99.90
666;DHT22;315;48.738;9.126;2023-05-19T05:22:31;12.50;99.90
666;DHT22;315;48.738;9.126;2023-05-19T05:24:57;12.60;99.90
666;DHT22;315;48.738;9.126;2023-05-19T05:27:22;12.60;99.90
666;DHT22;315;48.738;9.126;2023-05-19T05:29:48;12.50;99.90
666;DHT22;315;48.738;9.126;2023-05-19T05:32:13;12.60;99.90
666;DHT22;315;48.738;9.126;2023-05-19T05:34:41;12.70;99.90
666;DHT22;315;48.738;9.126;2023-05-19T05:37:07;12.80;99.90
666;DHT22;315;48.738;9.126;2023-05-19T05:39:32;12.70;99.90
666;DHT22;315;48.738;9.126;2023-05-19T05:41:58;12.80;99.90
666;DHT22;315;48.738;9.126;2023-05-19T05:44:23;12.80;99.90
666;DHT22;315;48.738;9.126;2023-05-19T05:46:49;12.90;99.90
666;DHT22;315;48.738;9.126;2023-05-19T05:49:15;13.00;99.90
666;DHT22;315;48.738;9.126;2023-05-19T05:51:40;13.00;99.90
666;DHT22;315;48.738;9.126;2023-05-19T05:54:06;13.20;99.90
666;DHT22;315;48.738;9.126;2023-05-19T05:56:36;13.30;99.90
666;DHT22;315;48.738;9.126;2023-05-19T05:59:01;13.40;99.90
666;DHT22;315;48.738;9.126;2023-05-19T06:01:27;13.60;99.90
666;DHT22;315;48.738;9.126;2023-05-19T06:03:54;13.70;99.90
666;DHT22;315;48.738;9.126;2023-05-19T06:06:20;13.90;99.90
666;DHT22;315;48.738;9.126;2023-05-19T06:08:45;14.10;99.90
666;DHT22;315;48.738;9.126;2023-05-19T06:11:11;14.30;99.90
666;DHT22;315;48.738;9.126;2023-05-19T06:13:37;14.40;99.90
666;DHT22;315;48.738;9.126;2023-05-19T06:16:03;14.60;99.90
666;DHT22;315;48.738;9.126;2023-05-19T06:18:30;14.80;99.90
666;DHT22;315;48.738;9.126;2023-05-19T06:20:55;15.00;99.90
666;DHT22;315;48.738;9.126;2023-05-19T06:23:21;15.10;99.90
666;DHT22;315;48.738;9.126;2023-05-19T06:25:46;15.00;99.90
666;DHT22;315;48.738;9.126;2023-05-19T06:28:12;15.10;99.90
666;DHT22;315;48.738;9.126;2023-05-19T06:30:37;15.20;99.90
666;DHT22;315;48.738;9.126;2023-05-19T06:33:03;15.40;99.90
666;DHT22;315;48.738;9.126;2023-05-19T06:35:29;15.60;99.90
666;DHT22;315;48.738;9.126;2023-05-19T06:37:55;15.70;99.90
666;DHT22;315;48.738;9.126;2023-05-19T06:40:21;15.70;99.90
666;DHT22;315;48.738;9.126;2023-05-19T06:42:47;15.50;99.90
666;DHT22;315;48.738;9.126;2023-05-19T06:45:12;15.50;99.90
666;DHT22;315;48.738;9.126;2023-05-19T06:47:38;15.40;99.90
666;DHT22;315;48.738;9.126;2023-05-19T06:50:09;15.50;99.90
666;DHT22;315;48.738;9.126;2023-05-19T06:52:35;15.60;99.90
666;DHT22;315;48.738;9.126;2023-05-19T06:55:01;15.80;99.90
666;DHT22;315;48.738;9.126;2023-05-19T06:57:26;15.90;99.90
666;DHT22;315;48.738;9.126;2023-05-19T06:59:52;16.00;99.90
666;DHT22;315;48.738;9.126;2023-05-19T07:02:17;16.10;99.90
666;DHT22;315;48.738;9.126;2023-05-19T07:04:43;16.10;99.90
666;DHT22;315;48.738;9.126;2023-05-19T07:07:08;16.20;99.90
666;DHT22;315;48.738;9.126;2023-05-19T07:09:34;16.40;99.90
666;DHT22;315;48.738;9.126;2023-05-19T07:11:59;16.60;99.90
666;DHT22;315;48.738;9.126;2023-05-19T07:14:25;16.60;99.90
666;DHT22;315;48.738;9.126;2023-05-19T07:16:51;16.70;99.90
666;DHT22;315;48.738;9.126;2023-05-19T07:19:17;16.80;99.90
666;DHT22;315;48.738;9.126;2023-05-19T07:21:45;16.80;99.90
666;DHT22;315;48.738;9.126;2023-05-19T07:24:11;16.60;99.90
666;DHT22;315;48.738;9.126;2023-05-19T07:26:37;16.70;99.90
666;DHT22;315;48.738;9.126;2023-05-19T07:29:02;16.70;99.90
666;DHT22;315;48.738;9.126;2023-05-19T07:31:28;16.60;99.90
666;DHT22;315;48.738;9.126;2023-05-19T07:33:53;16.90;99.90
666;DHT22;315;48.738;9.126;2023-05-19T07:36:19;17.00;99.90
666;DHT22;315;48.738;9.126;2023-05-19T07:38:45;17.00;99.90
666;DHT22;315;48.738;9.126;2023-05-19T07:41:11;17.00;99.90
666;DHT22;315;48.738;9.126;2023-05-19T07:43:37;17.00;99.90
666;DHT22;315;48.738;9.126;2023-05-19T07:46:03;17.20;99.90
666;DHT22;315;48.738;9.126;2023-05-19T07:48:28;17.20;99.90
666;DHT22;315;48.738;9.126;2023-05-19T07:50:54;16.90;99.90
666;DHT22;315;48.738;9.126;2023-05-19T07:53:20;16.90;99.90
666;DHT22;315;48.738;9.126;2023-05-19T07:55:46;17.10;99.90
666;DHT22;315;48.738;9.126;2023-05-19T07:58:12;17.10;99.90
666;DHT22;315;48.738;9.126;2023-05-19T08:00:38;17.20;99.90
666;DHT22;315;48.738;9.126;2023-05-19T08:03:03;17.10;99.90
666;DHT22;315;48.738;9.126;2023-05-19T08:05:29;17.00;99.90
666;DHT22;315;48.738;9.126;2023-05-19T08:07:55;16.90;99.90
666;DHT22;315;48.738;9.126;2023-05-19T08:10:21;16.90;99.90
666;DHT22;315;48.738;9.126;2023-05-19T08:12:47;16.60;99.90
666;DHT22;315;48.738;9.126;2023-05-19T08:15:12;16.60;99.90
666;DHT22;315;48.738;9.126;2023-05-19T08:17:38;16.40;99.90
666;DHT22;315;48.738;9.126;2023-05-19T08:20:04;16.40;99.90
666;DHT22;315;48.738;9.126;2023-05-19T08:22:32;16.40;99.90
666;DHT22;315;48.738;9.126;2023-05-19T08:24:58;16.20;99.90
666;DHT22;315;48.738;9.126;2023-05-19T08:27:23;16.20;99.90
666;DHT22;315;48.738;9.126;2023-05-19T08:29:48;16.10;99.90
666;DHT22;315;48.738;9.126;2023-05-19T08:32:14;16.20;99.90
666;DHT22;315;48.738;9.126;2023-05-19T08:34:40;16.20;99.90
666;DHT22;315;48.738;9.126;2023-05-19T08:37:06;16.20;99.90
666;DHT22;315;48.738;9.126;2023-05-19T08:39:32;16.30;99.90
666;DHT22;315;48.738;9.126;2023-05-19T08:41:58;16.30;99.90
666;DHT22;315;48.738;9.126;2023-05-19T08:44:25;16.30;99.90
666;DHT22;315;48.738;9.126;2023-05-19T08:46:53;16.30;99.90
666;DHT22;315;48.738;9.126;2023-05-19T08:49:22;16.30;99.90
666;DHT22;315;48.738;9.126;2023-05-19T08:52:26;16.40;99.90
666;DHT22;315;48.738;9.126;2023-05-19T08:54:54;16.50;99.90
666;DHT22;315;48.738;9.126;2023-05-19T08:57:25;16.60;99.90
666;DHT22;315;48.738;9.126;2023-05-19T08:59:51;16.60;99.90
666;DHT22;315;48.738;9.126;2023-05-19T09:02:18;16.80;99.90
666;DHT22;315;48.738;9.126;2023-05-19T09:04:44;16.90;99.90
666;DHT22;315;48.738;9.126;2023-05-19T09:07:13;17.10;99.90
666;DHT22;315;48.738;9.126;2023-05-19T09:09:40;17.20;99.90
666;DHT22;315;48.738;9.126;2023-05-19T09:12:10;17.30;99.90
666;DHT22;315;48.738;9.126;2023-05-19T09:14:36;17.30;99.90
666;DHT22;315;48.738;9.126;2023-05-19T09:17:03;17.30;99.90
666;DHT22;315;48.738;9.126;2023-05-19T09:19:28;17.30;99.90
666;DHT22;315;48.738;9.126;2023-05-19T09:21:58;17.20;99.90
666;DHT22;315;48.738;9.126;2023-05-19T09:24:30;17.00;99.90
666;DHT22;315;48.738;9.126;2023-05-19T09:26:56;16.90;99.90
666;DHT22;315;48.738;9.126;2023-05-19T09:29:22;16.90;99.90
666;DHT22;315;48.738;9.126;2023-05-19T09:31:52;16.80;99.90
666;DHT22;315;48.738;9.126;2023-05-19T09:34:21;16.80;99.90
666;DHT22;315;48.738;9.126;2023-05-19T09:36:49;16.80;99.90
666;DHT22;315;48.738;9.126;2023-05-19T09:39:16;16.70;99.90
666;DHT22;315;48.738;9.126;2023-05-19T09:41:42;16.70;99.90
666;DHT22;315;48.738;9.126;2023-05-19T09:44:21;16.80;99.90
666;DHT22;315;48.738;9.126;2023-05-19T09:46:51;16.90;99.90
666;DHT22;315;48.738;9.126;2023-05-19T09:49:27;16.90;99.90
666;DHT22;315;48.738;9.126;2023-05-19T09:51:58;16.90;99.90
666;DHT22;315;48.738;9.126;2023-05-19T09:54:25;16.90;99.90
666;DHT22;315;48.738;9.126;2023-05-19T09:57:03;16.80;99.90
666;DHT22;315;48.738;9.126;2023-05-19T09:59:30;17.00;99.90
666;DHT22;315;48.738;9.126;2023-05-19T10:01:59;17.00;99.90
666;DHT22;315;48.738;9.126;2023-05-19T10:04:26;17.10;99.90
666;DHT22;315;48.738;9.126;2023-05-19T10:06:53;17.10;99.90
666;DHT22;315;48.738;9.126;2023-05-19T10:09:23;17.20;99.90
666;DHT22;315;48.738;9.126;2023-05-19T10:11:52;17.00;99.90
666;DHT22;315;48.738;9.126;2023-05-19T10:14:26;17.10;99.90
666;DHT22;315;48.738;9.126;2023-05-19T10:16:54;17.20;99.90
666;DHT22;315;48.738;9.126;2023-05-19T10:19:21;17.30;99.90
666;DHT22;315;48.738;9.126;2023-05-19T10:21:47;17.30;99.90
666;DHT22;315;48.738;9.126;2023-05-19T10:24:12;17.20;99.90
666;DHT22;315;48.738;9.126;2023-05-19T10:26:41;17.20;99.90
666;DHT22;315;48.738;9.126;2023-05-19T10:29:08;17.20;99.90
666;DHT22;315;48.738;9.126;2023-05-19T10:31:34;16.80;99.90
666;DHT22;315;48.738;9.126;2023-05-19T10:34:19;16.90;99.90
666;DHT22;315;48.738;9.126;2023-05-19T10:36:54;16.90;99.90
666;DHT22;315;48.738;9.126;2023-05-19T10:39:24;16.90;99.90
666;DHT22;315;48.738;9.126;2023-05-19T10:42:15;16.90;99.90
666;DHT22;315;48.738;9.126;2023-05-19T10:47:28;16.90;99.90
666;DHT22;315;48.738;9.126;2023-05-19T10:49:54;16.70;99.90
666;DHT22;315;48.738;9.126;2023-05-19T10:52:21;16.70;99.90
666;DHT22;315;48.738;9.126;2023-05-19T10:54:47;16.80;99.90
666;DHT22;315;48.738;9.126;2023-05-19T10:57:14;16.80;99.90
666;DHT22;315;48.738;9.126;2023-05-19T10:59:40;17.00;99.90
666;DHT22;315;48.738;9.126;2023-05-19T11:02:07;17.10;99.90
666;DHT22;315;48.738;9.126;2023-05-19T11:04:44;17.10;99.90
666;DHT22;315;48.738;9.126;2023-05-19T11:07:16;17.00;99.90
666;DHT22;315;48.738;9.126;2023-05-19T11:09:42;16.90;99.90
666;DHT22;315;48.738;9.126;2023-05-19T11:12:07;16.90;99.90
666;DHT22;315;48.738;9.126;2023-05-19T11:14:35;16.70;99.90
666;DHT22;315;48.738;9.126;2023-05-19T11:17:00;16.60;99.90
666;DHT22;315;48.738;9.126;2023-05-19T11:19:30;16.70;99.90
666;DHT22;315;48.738;9.126;2023-05-19T11:22:07;16.60;99.90
666;DHT22;315;48.738;9.126;2023-05-19T11:24:43;16.60;99.90
666;DHT22;315;48.738;9.126;2023-05-19T11:27:17;16.70;99.90
666;DHT22;315;48.738;9.126;2023-05-19T11:29:43;16.80;99.90
666;DHT22;315;48.738;9.126;2023-05-19T11:32:10;16.80;99.90
666;DHT22;315;48.738;9.126;2023-05-19T11:34:36;16.80;99.90
666;DHT22;315;48.738;9.126;2023-05-19T11:37:03;16.80;99.90
666;DHT22;315;48.738;9.126;2023-05-19T11:39:30;16.90;99.90
666;DHT22;315;48.738;9.126;2023-05-19T11:41:56;16.90;99.90
666;DHT22;315;48.738;9.126;2023-05-19T11:44:21;16.90;99.90
666;DHT22;315;48.738;9.126;2023-05-19T11:46:47;16.90;99.90
666;DHT22;315;48.738;9.126;2023-05-19T11:49:14;16.80;99.90
666;DHT22;315;48.738;9.126;2023-05-19T11:51:42;16.90;99.90
666;DHT22;315;48.738;9.126;2023-05-19T11:54:09;16.70;99.90
666;DHT22;315;48.738;9.126;2023-05-19T11:56:39;16.60;99.90
666;DHT22;315;48.738;9.126;2023-05-19T11:59:05;16.50;99.90
666;DHT22;315;48.738;9.126;2023-05-19T12:01:32;16.60;99.90
666;DHT22;315;48.738;9.126;2023-05-19T12:03:58;16.70;99.90
666;DHT22;315;48.738;9.126;2023-05-19T12:06:25;16.90;99.90
666;DHT22;315;48.738;9.126;2023-05-19T12:08:52;16.90;99.90
666;DHT22;315;48.738;9.126;2023-05-19T12:11:18;16.80;99.90
666;DHT22;315;48.738;9.126;2023-05-19T12:13:44;16.90;99.90
666;DHT22;315;48.738;9.126;2023-05-19T12:16:09;16.90;99.90
666;DHT22;315;48.738;9.126;2023-05-19T12:18:36;17.00;99.90
666;DHT22;315;48.738;9.126;2023-05-19T12:21:03;17.00;99.90
666;DHT22;315;48.738;9.126;2023-05-19T12:23:29;17.00;99.90
666;DHT22;315;48.738;9.126;2023-05-19T12:25:56;16.80;99.90
666;DHT22;315;48.738;9.126;2023-05-19T12:28:22;16.80;99.90
666;DHT22;315;48.738;9.126;2023-05-19T12:30:50;16.80;99.90
666;DHT22;315;48.738;9.126;2023-05-19T12:33:17;16.80;99.90
666;DHT22;315;48.738;9.126;2023-05-19T12:35:44;16.80;99.90
666;DHT22;315;48.738;9.126;2023-05-19T12:38:10;16.70;99.90
666;DHT22;315;48.738;9.126;2023-05-19T12:40:36;16.60;99.90
666;DHT22;315;48.738;9.126;2023-05-19T12:43:03;16.50;99.90
666;DHT22;315;48.738;9.126;2023-05-19T12:45:33;16.40;99.90
666;DHT22;315;48.738;9.126;2023-05-19T12:48:02;16.50;99.90
666;DHT22;315;48.738;9.126;2023-05-19T12:50:29;16.50;99.90
666;DHT22;315;48.738;9.126;2023-05-19T12:52:55;16.60;99.90
666;DHT22;315;48.738;9.126;2023-05-19T12:55:20;16.60;99.90
666;DHT22;315;48.738;9.126;2023-05-19T12:57:49;16.80;99.90
666;DHT22;315;48.738;9.126;2023-05-19T13:00:24;16.80;99.90
666;DHT22;315;48.738;9.126;2023-05-19T13:05:20;16.80;99.90
666;DHT22;315;48.738;9.126;2023-05-19T13:07:57;16.80;99.90
666;DHT22;315;48.738;9.126;2023-05-19T13:10:24;16.90;99.90
666;DHT22;315;48.738;9.126;2023-05-19T13:12:54;16.80;99.90
666;DHT22;315;48.738;9.126;2023-05-19T13:15:22;16.70;99.90
666;DHT22;315;48.738;9.126;2023-05-19T13:17:51;16.80;99.90
666;DHT22;315;48.738;9.126;2023-05-19T13:20:18;16.80;99.90
666;DHT22;315;48.738;9.126;2023-05-19T13:22:43;17.00;99.90
666;DHT22;315;48.738;9.126;2023-05-19T13:25:09;17.30;99.90
666;DHT22;315;48.738;9.126;2023-05-19T13:27:36;17.60;99.90
666;DHT22;315;48.738;9.126;2023-05-19T13:30:02;17.70;99.90
666;DHT22;315;48.738;9.126;2023-05-19T13:32:28;17.90;99.90
666;DHT22;315;48.738;9.126;2023-05-19T13:34:53;18.10;99.90
666;DHT22;315;48.738;9.126;2023-05-19T13:37:18;18.10;99.90
666;DHT22;315;48.738;9.126;2023-05-19T13:39:44;18.10;99.90
666;DHT22;315;48.738;9.126;2023-05-19T13:42:10;17.90;99.90
666;DHT22;315;48.738;9.126;2023-05-19T13:44:35;17.70;99.90
666;DHT22;315;48.738;9.126;2023-05-19T13:47:01;17.50;99.90
666;DHT22;315;48.738;9.126;2023-05-19T13:49:26;17.30;99.90
666;DHT22;315;48.738;9.126;2023-05-19T13:51:55;17.20;99.90
666;DHT22;315;48.738;9.126;2023-05-19T13:54:22;17.10;99.90
666;DHT22;315;48.738;9.126;2023-05-19T13:56:48;16.80;99.90
666;DHT22;315;48.738;9.126;2023-05-19T13:59:14;16.70;99.90
666;DHT22;315;48.738;9.126;2023-05-19T14:01:41;16.60;99.90
666;DHT22;315;48.738;9.126;2023-05-19T14:04:07;16.40;99.90
666;DHT22;315;48.738;9.126;2023-05-19T14:06:33;16.40;99.90
666;DHT22;315;48.738;9.126;2023-05-19T14:08:59;16.40;99.90
666;DHT22;315;48.738;9.126;2023-05-19T14:11:24;16.50;99.90
666;DHT22;315;48.738;9.126;2023-05-19T14:13:50;16.60;99.90
666;DHT22;315;48.738;9.126;2023-05-19T14:16:16;16.70;99.90
666;DHT22;315;48.738;9.126;2023-05-19T14:18:42;16.70;99.90
666;DHT22;315;48.738;9.126;2023-05-19T14:21:08;16.70;99.90
666;DHT22;315;48.738;9.126;2023-05-19T14:23:34;16.70;99.90
666;DHT22;315;48.738;9.126;2023-05-19T14:25:59;16.70;99.90
666;DHT22;315;48.738;9.126;2023-05-19T14:28:26;16.80;99.90
666;DHT22;315;48.738;9.126;2023-05-19T14:30:51;16.90;99.90
666;DHT22;315;48.738;9.126;2023-05-19T14:33:17;16.90;99.90
666;DHT22;315;48.738;9.126;2023-05-19T14:35:44;16.90;99.90
666;DHT22;315;48.738;9.126;2023-05-19T14:38:09;17.00;99.90
666;DHT22;315;48.738;9.126;2023-05-19T14:40:36;17.00;99.90
666;DHT22;315;48.738;9.126;2023-05-19T14:43:02;16.90;99.90
666;DHT22;315;48.738;9.126;2023-05-19T14:45:28;16.90;99.90
666;DHT22;315;48.738;9.126;2023-05-19T14:47:53;16.80;99.90
666;DHT22;315;48.738;9.126;2023-05-19T14:50:19;16.80;99.90
666;DHT22;315;48.738;9.126;2023-05-19T14:52:44;16.70;99.90
666;DHT22;315;48.738;9.126;2023-05-19T14:55:10;16.70;99.90
666;DHT22;315;48.738;9.126;2023-05-19T14:57:35;16.70;99.90
666;DHT22;315;48.738;9.126;2023-05-19T15:00:01;16.60;99.90
666;DHT22;315;48.738;9.126;2023-05-19T15:02:26;16.50;99.90
666;DHT22;315;48.738;9.126;2023-05-19T15:04:52;16.50;99.90
666;DHT22;315;48.738;9.126;2023-05-19T15:07:17;16.50;99.90
666;DHT22;315;48.738;9.126;2023-05-19T15:09:43;16.60;99.90
666;DHT22;315;48.738;9.126;2023-05-19T15:12:08;16.60;99.90
666;DHT22;315;48.738;9.126;2023-05-19T15:14:34;16.60;99.90
666;DHT22;315;48.738;9.126;2023-05-19T15:17:00;16.60;99.90
666;DHT22;315;48.738;9.126;2023-05-19T15:19:25;16.50;99.90
666;DHT22;315;48.738;9.126;2023-05-19T15:21:51;16.50;99.90
666;DHT22;315;48.738;9.126;2023-05-19T15:24:16;16.40;99.90
666;DHT22;315;48.738;9.126;2023-05-19T15:26:42;16.40;99.90
666;DHT22;315;48.738;9.126;2023-05-19T15:29:07;16.50;99.90
666;DHT22;315;48.738;9.126;2023-05-19T15:31:33;16.50;99.90
666;DHT22;315;48.738;9.126;2023-05-19T15:33:58;16.50;99.90
666;DHT22;315;48.738;9.126;2023-05-19T15:36:24;16.50;99.90
666;DHT22;315;48.738;9.126;2023-05-19T15:38:49;16.40;99.90
666;DHT22;315;48.738;9.126;2023-05-19T15:41:15;16.40;99.90
666;DHT22;315;48.738;9.126;2023-05-19T15:43:40;16.40;99.90
666;DHT22;315;48.738;9.126;2023-05-19T15:46:06;16.40;99.90
666;DHT22;315;48.738;9.126;2023-05-19T15:48:31;16.40;99.90
666;DHT22;315;48.738;9.126;2023-05-19T15:51:00;16.40;99.90
666;DHT22;315;48.738;9.126;2023-05-19T15:53:26;16.40;99.90
666;DHT22;315;48.738;9.126;2023-05-19T15:55:51;16.50;99.90
666;DHT22;315;48.738;9.126;2023-05-19T15:58:17;16.60;99.90
666;DHT22;315;48.738;9.126;2023-05-19T16:00:42;16.60;99.90
666;DHT22;315;48.738;9.126;2023-05-19T16:03:08;16.60;99.90
666;DHT22;315;48.738;9.126;2023-05-19T16:05:33;16.60;99.90
666;DHT22;315;48.738;9.126;2023-05-19T16:07:59;16.60;99.90
666;DHT22;315;48.738;9.126;2023-05-19T16:10:24;16.70;99.90
666;DHT22;315;48.738;9.126;2023-05-19T16:12:50;16.80;99.90
666;DHT22;315;48.738;9.126;2023-05-19T16:15:16;16.80;99.90
666;DHT22;315;48.738;9.126;2023-05-19T16:17:41;16.80;99.90
666;DHT22;315;48.738;9.126;2023-05-19T16:20:07;16.90;99.90
666;DHT22;315;48.738;9.126;2023-05-19T16:22:33;16.80;99.90
666;DHT22;315;48.738;9.126;2023-05-19T16:24:58;16.80;99.90
666;DHT22;315;48.738;9.126;2023-05-19T16:27:24;16.70;99.90
666;DHT22;315;48.738;9.126;2023-05-19T16:29:49;16.80;99.90
666;DHT22;315;48.738;9.126;2023-05-19T16:32:15;16.80;99.90
666;DHT22;315;48.738;9.126;2023-05-19T16:34:40;16.80;99.90
666;DHT22;315;48.738;9.126;2023-05-19T16:37:06;16.70;99.90
666;DHT22;315;48.738;9.126;2023-05-19T16:39:31;16.70;99.90
666;DHT22;315;48.738;9.126;2023-05-19T16:41:57;16.70;99.90
666;DHT22;315;48.738;9.126;2023-05-19T16:44:22;16.70;99.90
666;DHT22;315;48.738;9.126;2023-05-19T16:46:48;16.70;99.90
666;DHT22;315;48.738;9.126;2023-05-19T16:49:14;16.70;99.90
666;DHT22;315;48.738;9.126;2023-05-19T16:51:40;16.80;99.90
666;DHT22;315;48.738;9.126;2023-05-19T16:54:05;16.80;99.90
666;DHT22;315;48.738;9.126;2023-05-19T16:56:31;16.70;99.90